This is the latest recevied weather packets stored in our database for station/object WL7CLI. If no packets are shown the sender has not sent any weather packets the latest 1 day(s).
| Time | Temp. | Humidity | Pressure | Rain* | Wind** | Luminosity | Snow |
|---|---|---|---|---|---|---|---|
| 1778077705 | 8.89° C | 45% | 1018.1 hPa | 0 mm | - | - | - |
| 1778076972 | 8.33° C | 47% | 1018.4 hPa | 0 mm | - | - | - |
| 1778075905 | 7.78° C | 51% | 1017.7 hPa | 0 mm | - | - | - |
| 1778075775 | 7.78° C | 51% | 1018.2 hPa | 0 mm | - | - | - |
| 1778074699 | 7.22° C | 54% | 1017.9 hPa | 0 mm | - | - | - |
| 1778074572 | 7.22° C | 53% | 1017.9 hPa | 0 mm | - | - | - |
| 1778073374 | 6.67° C | 54% | 1017.8 hPa | 0 mm | - | - | - |
| 1778072300 | 6.11° C | 58% | 1017.6 hPa | 0 mm | - | - | - |
| 1778072176 | 6.11° C | 58% | 1017.6 hPa | 0 mm | - | - | - |
| 1778069900 | 5.56° C | 61% | 1017.2 hPa | 0 mm | - | - | - |
| 1778069776 | 5.56° C | 61% | 1017.1 hPa | 0 mm | - | - | - |
| 1778068572 | 5° C | 62% | 1017 hPa | 0 mm | - | - | - |
| 1778067500 | 5° C | 62% | 1016.8 hPa | 0 mm | - | - | - |
| 1778065099 | 5.56° C | 59% | 1016.2 hPa | 0 mm | - | - | - |
| 1778063898 | 5.56° C | 59% | 1015.9 hPa | 0 mm | - | - | - |
| 1778063772 | 5.56° C | 58% | 1015.9 hPa | 0 mm | - | - | - |
| 1778062698 | 5.56° C | 57% | 1015.8 hPa | 0 mm | - | - | - |
| 1778061500 | 5.56° C | 56% | 1015.6 hPa | 0 mm | - | - | - |
| 1778061373 | 5.56° C | 57% | 1015.6 hPa | 0 mm | - | - | - |
| 1778060299 | 5.56° C | 57% | 1015.6 hPa | 0 mm | - | - | - |
| 1778057899 | 5.56° C | 58% | 1015.4 hPa | 0 mm | - | - | - |
| 1778057775 | 5.56° C | 58% | 1015.4 hPa | 0 mm | - | - | - |
| 1778055498 | 4.44° C | 63% | 1014.7 hPa | 0 mm | - | - | - |
| 1778054304 | 4.44° C | 63% | 1014.4 hPa | 0 mm | - | - | - |
| 1778053098 | 5° C | 60% | 1014.7 hPa | 0 mm | - | - | - |
* Rain latest hour (hover to see other rain measurements)
** Current wind speed in m/s (hover to see current wind gust speed)